sensor_id;sensor_type;location;lat;lon;timestamp;P1;durP1;ratioP1;P2;durP2;ratioP2
4428;SDS011;2227;47.810;8.810;2024-03-08T04:49:51;711.28;;;523.40;;
4428;SDS011;2227;47.810;8.810;2024-03-08T04:52:17;712.38;;;514.65;;
4428;SDS011;2227;47.810;8.810;2024-03-08T04:54:44;709.50;;;518.40;;
4428;SDS011;2227;47.810;8.810;2024-03-08T04:57:11;707.80;;;519.08;;
4428;SDS011;2227;47.810;8.810;2024-03-08T04:59:38;713.15;;;529.13;;
4428;SDS011;2227;47.810;8.810;2024-03-08T05:02:04;703.38;;;526.58;;
4428;SDS011;2227;47.810;8.810;2024-03-08T05:04:33;696.63;;;522.22;;
4428;SDS011;2227;47.810;8.810;2024-03-08T05:07:00;698.83;;;522.28;;
4428;SDS011;2227;47.810;8.810;2024-03-08T05:09:30;709.15;;;515.75;;
4428;SDS011;2227;47.810;8.810;2024-03-08T05:11:58;700.10;;;516.13;;
4428;SDS011;2227;47.810;8.810;2024-03-08T05:14:26;705.83;;;518.77;;
4428;SDS011;2227;47.810;8.810;2024-03-08T05:16:52;709.30;;;512.97;;
4428;SDS011;2227;47.810;8.810;2024-03-08T05:19:20;705.85;;;515.95;;
4428;SDS011;2227;47.810;8.810;2024-03-08T05:21:47;696.85;;;522.28;;
4428;SDS011;2227;47.810;8.810;2024-03-08T05:24:15;699.60;;;518.83;;
4428;SDS011;2227;47.810;8.810;2024-03-08T05:26:43;706.72;;;517.30;;
4428;SDS011;2227;47.810;8.810;2024-03-08T05:29:11;699.85;;;515.20;;
4428;SDS011;2227;47.810;8.810;2024-03-08T05:31:43;701.93;;;519.40;;
4428;SDS011;2227;47.810;8.810;2024-03-08T05:34:12;708.33;;;515.63;;
4428;SDS011;2227;47.810;8.810;2024-03-08T05:36:41;694.85;;;521.08;;
4428;SDS011;2227;47.810;8.810;2024-03-08T05:39:13;705.45;;;515.63;;
4428;SDS011;2227;47.810;8.810;2024-03-08T05:41:40;707.33;;;519.75;;
4428;SDS011;2227;47.810;8.810;2024-03-08T05:44:08;709.13;;;516.85;;
4428;SDS011;2227;47.810;8.810;2024-03-08T05:46:36;707.28;;;514.78;;
4428;SDS011;2227;47.810;8.810;2024-03-08T05:49:03;698.58;;;516.63;;
4428;SDS011;2227;47.810;8.810;2024-03-08T05:51:37;703.63;;;516.55;;
4428;SDS011;2227;47.810;8.810;2024-03-08T05:54:06;702.35;;;513.13;;
4428;SDS011;2227;47.810;8.810;2024-03-08T05:56:36;698.90;;;517.53;;
4428;SDS011;2227;47.810;8.810;2024-03-08T05:59:04;696.35;;;518.13;;
4428;SDS011;2227;47.810;8.810;2024-03-08T06:01:30;695.35;;;517.03;;
4428;SDS011;2227;47.810;8.810;2024-03-08T06:03:57;697.23;;;512.87;;
4428;SDS011;2227;47.810;8.810;2024-03-08T06:06:25;690.07;;;518.73;;
4428;SDS011;2227;47.810;8.810;2024-03-08T06:08:52;697.15;;;515.47;;
4428;SDS011;2227;47.810;8.810;2024-03-08T06:11:19;697.15;;;513.58;;
4428;SDS011;2227;47.810;8.810;2024-03-08T06:13:47;697.97;;;514.30;;
4428;SDS011;2227;47.810;8.810;2024-03-08T06:16:14;709.83;;;509.17;;
4428;SDS011;2227;47.810;8.810;2024-03-08T06:18:41;692.10;;;519.92;;
4428;SDS011;2227;47.810;8.810;2024-03-08T06:21:09;693.05;;;518.13;;
4428;SDS011;2227;47.810;8.810;2024-03-08T06:23:37;691.55;;;517.45;;
4428;SDS011;2227;47.810;8.810;2024-03-08T06:26:05;693.40;;;515.47;;
4428;SDS011;2227;47.810;8.810;2024-03-08T06:28:32;687.33;;;518.80;;
4428;SDS011;2227;47.810;8.810;2024-03-08T06:30:59;689.92;;;525.15;;
4428;SDS011;2227;47.810;8.810;2024-03-08T06:33:26;689.20;;;523.22;;
4428;SDS011;2227;47.810;8.810;2024-03-08T06:35:56;689.60;;;523.50;;
4428;SDS011;2227;47.810;8.810;2024-03-08T06:38:24;693.40;;;523.22;;
4428;SDS011;2227;47.810;8.810;2024-03-08T06:40:51;689.85;;;518.38;;
4428;SDS011;2227;47.810;8.810;2024-03-08T06:43:19;690.53;;;520.17;;
4428;SDS011;2227;47.810;8.810;2024-03-08T06:45:46;693.30;;;531.47;;
4428;SDS011;2227;47.810;8.810;2024-03-08T06:48:18;697.23;;;518.17;;
4428;SDS011;2227;47.810;8.810;2024-03-08T06:50:45;692.20;;;518.20;;
4428;SDS011;2227;47.810;8.810;2024-03-08T06:53:13;696.17;;;521.38;;
4428;SDS011;2227;47.810;8.810;2024-03-08T06:55:41;690.72;;;527.70;;
4428;SDS011;2227;47.810;8.810;2024-03-08T06:58:08;696.57;;;526.70;;
4428;SDS011;2227;47.810;8.810;2024-03-08T07:00:37;700.13;;;520.03;;
4428;SDS011;2227;47.810;8.810;2024-03-08T07:03:07;693.92;;;527.30;;
4428;SDS011;2227;47.810;8.810;2024-03-08T07:05:38;696.83;;;528.38;;
4428;SDS011;2227;47.810;8.810;2024-03-08T07:08:06;701.38;;;528.95;;
4428;SDS011;2227;47.810;8.810;2024-03-08T07:10:33;704.22;;;519.30;;
4428;SDS011;2227;47.810;8.810;2024-03-08T07:13:01;699.75;;;524.80;;
4428;SDS011;2227;47.810;8.810;2024-03-08T07:15:30;699.65;;;533.83;;
4428;SDS011;2227;47.810;8.810;2024-03-08T07:17:57;704.95;;;525.20;;
4428;SDS011;2227;47.810;8.810;2024-03-08T07:20:26;703.88;;;521.10;;
4428;SDS011;2227;47.810;8.810;2024-03-08T07:22:52;701.28;;;526.17;;
4428;SDS011;2227;47.810;8.810;2024-03-08T07:25:20;704.72;;;524.75;;
4428;SDS011;2227;47.810;8.810;2024-03-08T07:27:48;704.77;;;529.63;;
4428;SDS011;2227;47.810;8.810;2024-03-08T07:30:15;704.22;;;526.90;;
4428;SDS011;2227;47.810;8.810;2024-03-08T07:33:01;700.65;;;526.65;;
4428;SDS011;2227;47.810;8.810;2024-03-08T07:35:29;705.30;;;524.80;;
4428;SDS011;2227;47.810;8.810;2024-03-08T07:37:57;707.38;;;527.13;;
4428;SDS011;2227;47.810;8.810;2024-03-08T07:40:26;704.95;;;529.45;;
4428;SDS011;2227;47.810;8.810;2024-03-08T07:42:53;705.15;;;523.25;;
4428;SDS011;2227;47.810;8.810;2024-03-08T07:45:19;700.63;;;524.47;;
4428;SDS011;2227;47.810;8.810;2024-03-08T07:47:48;702.22;;;525.25;;
4428;SDS011;2227;47.810;8.810;2024-03-08T07:50:15;696.08;;;527.80;;
4428;SDS011;2227;47.810;8.810;2024-03-08T07:52:42;698.53;;;533.83;;
4428;SDS011;2227;47.810;8.810;2024-03-08T07:55:09;695.55;;;528.38;;
4428;SDS011;2227;47.810;8.810;2024-03-08T07:57:39;702.90;;;526.83;;
4428;SDS011;2227;47.810;8.810;2024-03-08T08:00:06;700.03;;;528.30;;
4428;SDS011;2227;47.810;8.810;2024-03-08T08:02:34;702.35;;;534.13;;
4428;SDS011;2227;47.810;8.810;2024-03-08T08:05:05;701.30;;;535.97;;
4428;SDS011;2227;47.810;8.810;2024-03-08T08:07:32;699.95;;;536.42;;
4428;SDS011;2227;47.810;8.810;2024-03-08T08:09:59;698.97;;;535.10;;
4428;SDS011;2227;47.810;8.810;2024-03-08T08:12:26;695.45;;;530.42;;
4428;SDS011;2227;47.810;8.810;2024-03-08T08:14:55;700.08;;;532.58;;
4428;SDS011;2227;47.810;8.810;2024-03-08T08:17:22;699.80;;;530.90;;
4428;SDS011;2227;47.810;8.810;2024-03-08T08:19:49;704.13;;;527.60;;
4428;SDS011;2227;47.810;8.810;2024-03-08T08:22:16;703.97;;;531.80;;
4428;SDS011;2227;47.810;8.810;2024-03-08T08:24:44;705.55;;;533.70;;
4428;SDS011;2227;47.810;8.810;2024-03-08T08:27:11;707.20;;;521.38;;
4428;SDS011;2227;47.810;8.810;2024-03-08T08:29:38;709.03;;;522.53;;
4428;SDS011;2227;47.810;8.810;2024-03-08T08:32:06;699.40;;;527.28;;
4428;SDS011;2227;47.810;8.810;2024-03-08T08:34:33;700.53;;;531.10;;
4428;SDS011;2227;47.810;8.810;2024-03-08T08:36:59;699.10;;;545.33;;
4428;SDS011;2227;47.810;8.810;2024-03-08T08:39:27;703.00;;;536.92;;
4428;SDS011;2227;47.810;8.810;2024-03-08T08:41:54;700.72;;;533.33;;
4428;SDS011;2227;47.810;8.810;2024-03-08T08:44:21;699.08;;;534.03;;
4428;SDS011;2227;47.810;8.810;2024-03-08T08:46:48;695.90;;;537.47;;
4428;SDS011;2227;47.810;8.810;2024-03-08T08:49:18;701.03;;;536.90;;
4428;SDS011;2227;47.810;8.810;2024-03-08T08:51:50;701.70;;;539.33;;
4428;SDS011;2227;47.810;8.810;2024-03-08T08:54:19;706.42;;;541.10;;
4428;SDS011;2227;47.810;8.810;2024-03-08T08:56:47;704.30;;;541.60;;
4428;SDS011;2227;47.810;8.810;2024-03-08T08:59:13;703.63;;;538.17;;
4428;SDS011;2227;47.810;8.810;2024-03-08T09:01:40;707.88;;;551.67;;
4428;SDS011;2227;47.810;8.810;2024-03-08T09:04:07;706.90;;;540.05;;
4428;SDS011;2227;47.810;8.810;2024-03-08T09:06:34;706.75;;;550.10;;
4428;SDS011;2227;47.810;8.810;2024-03-08T09:09:02;702.10;;;541.40;;
4428;SDS011;2227;47.810;8.810;2024-03-08T09:11:32;706.30;;;542.25;;
4428;SDS011;2227;47.810;8.810;2024-03-08T09:13:59;709.08;;;564.47;;
4428;SDS011;2227;47.810;8.810;2024-03-08T09:16:26;702.22;;;545.72;;
4428;SDS011;2227;47.810;8.810;2024-03-08T09:18:52;708.30;;;557.70;;
4428;SDS011;2227;47.810;8.810;2024-03-08T09:21:19;711.75;;;571.53;;
4428;SDS011;2227;47.810;8.810;2024-03-08T09:23:49;710.30;;;564.80;;
4428;SDS011;2227;47.810;8.810;2024-03-08T09:26:15;706.88;;;554.17;;
4428;SDS011;2227;47.810;8.810;2024-03-08T09:28:53;700.92;;;557.10;;
4428;SDS011;2227;47.810;8.810;2024-03-08T09:31:23;703.40;;;550.42;;
4428;SDS011;2227;47.810;8.810;2024-03-08T09:33:50;703.13;;;547.58;;
4428;SDS011;2227;47.810;8.810;2024-03-08T09:36:17;701.65;;;543.70;;
4428;SDS011;2227;47.810;8.810;2024-03-08T09:38:44;702.83;;;543.55;;
4428;SDS011;2227;47.810;8.810;2024-03-08T09:41:10;699.97;;;546.43;;
4428;SDS011;2227;47.810;8.810;2024-03-08T09:43:38;702.28;;;541.20;;
4428;SDS011;2227;47.810;8.810;2024-03-08T09:46:05;710.87;;;534.13;;
4428;SDS011;2227;47.810;8.810;2024-03-08T09:48:33;709.20;;;523.30;;
4428;SDS011;2227;47.810;8.810;2024-03-08T09:51:01;718.42;;;519.72;;
4428;SDS011;2227;47.810;8.810;2024-03-08T09:53:29;715.53;;;510.02;;
4428;SDS011;2227;47.810;8.810;2024-03-08T09:55:56;711.10;;;515.05;;
4428;SDS011;2227;47.810;8.810;2024-03-08T09:58:23;706.10;;;513.70;;
4428;SDS011;2227;47.810;8.810;2024-03-08T10:00:53;707.45;;;517.75;;
4428;SDS011;2227;47.810;8.810;2024-03-08T10:03:23;700.17;;;528.80;;
4428;SDS011;2227;47.810;8.810;2024-03-08T10:05:52;706.00;;;528.83;;
4428;SDS011;2227;47.810;8.810;2024-03-08T10:08:22;703.30;;;531.85;;
4428;SDS011;2227;47.810;8.810;2024-03-08T10:10:50;704.85;;;533.45;;
4428;SDS011;2227;47.810;8.810;2024-03-08T10:13:17;702.17;;;532.78;;
4428;SDS011;2227;47.810;8.810;2024-03-08T10:15:46;699.03;;;540.20;;
4428;SDS011;2227;47.810;8.810;2024-03-08T10:18:12;704.90;;;534.13;;
4428;SDS011;2227;47.810;8.810;2024-03-08T10:20:39;701.85;;;535.78;;
4428;SDS011;2227;47.810;8.810;2024-03-08T10:23:06;707.05;;;555.65;;
4428;SDS011;2227;47.810;8.810;2024-03-08T10:25:37;703.88;;;545.28;;
4428;SDS011;2227;47.810;8.810;2024-03-08T10:28:04;702.37;;;562.13;;
4428;SDS011;2227;47.810;8.810;2024-03-08T10:30:32;705.88;;;561.92;;
4428;SDS011;2227;47.810;8.810;2024-03-08T10:32:59;710.28;;;572.22;;
4428;SDS011;2227;47.810;8.810;2024-03-08T10:35:26;700.63;;;565.92;;
4428;SDS011;2227;47.810;8.810;2024-03-08T10:37:53;708.80;;;558.27;;
4428;SDS011;2227;47.810;8.810;2024-03-08T10:40:26;706.50;;;570.67;;
4428;SDS011;2227;47.810;8.810;2024-03-08T10:42:55;716.00;;;565.65;;
4428;SDS011;2227;47.810;8.810;2024-03-08T10:45:35;711.78;;;570.83;;
4428;SDS011;2227;47.810;8.810;2024-03-08T10:50:49;704.50;;;576.38;;
4428;SDS011;2227;47.810;8.810;2024-03-08T10:53:19;707.22;;;575.78;;
4428;SDS011;2227;47.810;8.810;2024-03-08T10:55:47;706.03;;;571.63;;
4428;SDS011;2227;47.810;8.810;2024-03-08T10:58:20;706.97;;;571.35;;
4428;SDS011;2227;47.810;8.810;2024-03-08T11:00:48;704.72;;;556.50;;
4428;SDS011;2227;47.810;8.810;2024-03-08T11:06:18;705.65;;;570.50;;
4428;SDS011;2227;47.810;8.810;2024-03-08T11:08:49;706.85;;;562.55;;
4428;SDS011;2227;47.810;8.810;2024-03-08T11:11:25;704.87;;;574.77;;
4428;SDS011;2227;47.810;8.810;2024-03-08T11:13:59;710.40;;;566.78;;
4428;SDS011;2227;47.810;8.810;2024-03-08T11:18:53;705.60;;;573.17;;
4428;SDS011;2227;47.810;8.810;2024-03-08T11:21:21;708.97;;;573.03;;
4428;SDS011;2227;47.810;8.810;2024-03-08T11:24:02;704.50;;;566.42;;
4428;SDS011;2227;47.810;8.810;2024-03-08T11:26:32;711.25;;;577.40;;
4428;SDS011;2227;47.810;8.810;2024-03-08T11:34:37;702.95;;;579.33;;
4428;SDS011;2227;47.810;8.810;2024-03-08T11:37:19;704.40;;;585.20;;
4428;SDS011;2227;47.810;8.810;2024-03-08T11:39:51;707.78;;;584.75;;
4428;SDS011;2227;47.810;8.810;2024-03-08T11:42:19;705.83;;;579.50;;
4428;SDS011;2227;47.810;8.810;2024-03-08T11:44:46;704.53;;;584.65;;
4428;SDS011;2227;47.810;8.810;2024-03-08T11:47:14;704.08;;;587.22;;
4428;SDS011;2227;47.810;8.810;2024-03-08T11:49:42;706.55;;;591.30;;
4428;SDS011;2227;47.810;8.810;2024-03-08T11:52:11;703.42;;;586.80;;
4428;SDS011;2227;47.810;8.810;2024-03-08T11:54:43;700.15;;;577.13;;
4428;SDS011;2227;47.810;8.810;2024-03-08T11:57:19;703.47;;;584.80;;
4428;SDS011;2227;47.810;8.810;2024-03-08T11:59:51;711.63;;;589.33;;
4428;SDS011;2227;47.810;8.810;2024-03-08T12:02:22;703.65;;;582.13;;
4428;SDS011;2227;47.810;8.810;2024-03-08T12:04:59;703.53;;;586.00;;
4428;SDS011;2227;47.810;8.810;2024-03-08T12:07:29;706.45;;;586.45;;
4428;SDS011;2227;47.810;8.810;2024-03-08T12:17:44;711.13;;;591.45;;
4428;SDS011;2227;47.810;8.810;2024-03-08T12:20:18;708.78;;;589.35;;
4428;SDS011;2227;47.810;8.810;2024-03-08T12:22:49;709.22;;;590.20;;
4428;SDS011;2227;47.810;8.810;2024-03-08T12:25:25;705.50;;;590.30;;
4428;SDS011;2227;47.810;8.810;2024-03-08T12:28:08;703.15;;;586.97;;
4428;SDS011;2227;47.810;8.810;2024-03-08T12:30:50;705.38;;;588.40;;
4428;SDS011;2227;47.810;8.810;2024-03-08T12:33:20;711.90;;;589.35;;
4428;SDS011;2227;47.810;8.810;2024-03-08T12:35:51;715.78;;;595.85;;
4428;SDS011;2227;47.810;8.810;2024-03-08T12:38:21;715.95;;;594.15;;
4428;SDS011;2227;47.810;8.810;2024-03-08T12:40:55;711.13;;;591.63;;
4428;SDS011;2227;47.810;8.810;2024-03-08T12:43:26;710.53;;;588.10;;
4428;SDS011;2227;47.810;8.810;2024-03-08T12:45:56;711.90;;;593.37;;
4428;SDS011;2227;47.810;8.810;2024-03-08T12:48:23;709.10;;;591.22;;
4428;SDS011;2227;47.810;8.810;2024-03-08T12:50:51;706.20;;;585.45;;
4428;SDS011;2227;47.810;8.810;2024-03-08T12:53:18;707.38;;;587.13;;
4428;SDS011;2227;47.810;8.810;2024-03-08T12:55:45;708.78;;;585.20;;
4428;SDS011;2227;47.810;8.810;2024-03-08T12:58:12;712.40;;;588.38;;
4428;SDS011;2227;47.810;8.810;2024-03-08T13:00:39;710.58;;;592.38;;
4428;SDS011;2227;47.810;8.810;2024-03-08T13:03:09;709.58;;;591.35;;
4428;SDS011;2227;47.810;8.810;2024-03-08T13:05:37;713.97;;;595.87;;
4428;SDS011;2227;47.810;8.810;2024-03-08T13:08:06;716.13;;;592.80;;
4428;SDS011;2227;47.810;8.810;2024-03-08T13:10:39;711.80;;;590.50;;
4428;SDS011;2227;47.810;8.810;2024-03-08T13:13:10;705.80;;;595.33;;
4428;SDS011;2227;47.810;8.810;2024-03-08T13:15:40;709.53;;;598.90;;
4428;SDS011;2227;47.810;8.810;2024-03-08T13:18:07;706.10;;;596.05;;
4428;SDS011;2227;47.810;8.810;2024-03-08T13:20:35;704.27;;;594.60;;
4428;SDS011;2227;47.810;8.810;2024-03-08T13:23:13;707.88;;;599.50;;
4428;SDS011;2227;47.810;8.810;2024-03-08T13:25:40;711.83;;;598.70;;
4428;SDS011;2227;47.810;8.810;2024-03-08T13:28:07;712.97;;;592.25;;
4428;SDS011;2227;47.810;8.810;2024-03-08T13:30:35;708.17;;;596.72;;
4428;SDS011;2227;47.810;8.810;2024-03-08T13:33:02;714.47;;;599.28;;
4428;SDS011;2227;47.810;8.810;2024-03-08T13:35:31;709.75;;;597.97;;
4428;SDS011;2227;47.810;8.810;2024-03-08T13:37:59;708.75;;;597.30;;
4428;SDS011;2227;47.810;8.810;2024-03-08T13:40:29;714.22;;;596.80;;
4428;SDS011;2227;47.810;8.810;2024-03-08T13:42:57;713.88;;;600.83;;
4428;SDS011;2227;47.810;8.810;2024-03-08T13:45:24;713.00;;;610.30;;
4428;SDS011;2227;47.810;8.810;2024-03-08T13:47:52;711.97;;;611.40;;
4428;SDS011;2227;47.810;8.810;2024-03-08T13:50:21;717.60;;;620.55;;
4428;SDS011;2227;47.810;8.810;2024-03-08T13:52:49;712.97;;;616.83;;
4428;SDS011;2227;47.810;8.810;2024-03-08T13:55:20;721.67;;;627.55;;
4428;SDS011;2227;47.810;8.810;2024-03-08T13:57:49;729.27;;;643.23;;
4428;SDS011;2227;47.810;8.810;2024-03-08T14:00:17;737.53;;;657.20;;
4428;SDS011;2227;47.810;8.810;2024-03-08T14:02:48;743.88;;;663.03;;
4428;SDS011;2227;47.810;8.810;2024-03-08T14:05:15;751.70;;;671.50;;
4428;SDS011;2227;47.810;8.810;2024-03-08T14:07:42;764.72;;;683.95;;
4428;SDS011;2227;47.810;8.810;2024-03-08T14:10:12;795.17;;;712.90;;
4428;SDS011;2227;47.810;8.810;2024-03-08T14:12:39;781.28;;;699.67;;
4428;SDS011;2227;47.810;8.810;2024-03-08T14:15:06;795.25;;;713.30;;
4428;SDS011;2227;47.810;8.810;2024-03-08T14:17:33;802.67;;;720.42;;
4428;SDS011;2227;47.810;8.810;2024-03-08T14:20:00;802.20;;;719.10;;
4428;SDS011;2227;47.810;8.810;2024-03-08T14:22:27;807.08;;;724.03;;
4428;SDS011;2227;47.810;8.810;2024-03-08T14:24:54;801.55;;;719.38;;
4428;SDS011;2227;47.810;8.810;2024-03-08T14:27:22;808.20;;;725.60;;
4428;SDS011;2227;47.810;8.810;2024-03-08T14:29:49;807.35;;;725.05;;
4428;SDS011;2227;47.810;8.810;2024-03-08T14:32:16;804.88;;;722.28;;
4428;SDS011;2227;47.810;8.810;2024-03-08T14:34:45;814.40;;;731.30;;
4428;SDS011;2227;47.810;8.810;2024-03-08T14:37:14;813.42;;;730.78;;
4428;SDS011;2227;47.810;8.810;2024-03-08T14:39:41;819.47;;;736.67;;
4428;SDS011;2227;47.810;8.810;2024-03-08T14:42:07;814.45;;;733.33;;
4428;SDS011;2227;47.810;8.810;2024-03-08T14:44:39;813.33;;;730.53;;
4428;SDS011;2227;47.810;8.810;2024-03-08T14:47:06;820.90;;;738.73;;
4428;SDS011;2227;47.810;8.810;2024-03-08T14:49:33;817.20;;;735.60;;
4428;SDS011;2227;47.810;8.810;2024-03-08T14:52:02;817.42;;;735.88;;
4428;SDS011;2227;47.810;8.810;2024-03-08T14:54:40;825.47;;;744.58;;
4428;SDS011;2227;47.810;8.810;2024-03-08T14:57:07;833.28;;;751.20;;
4428;SDS011;2227;47.810;8.810;2024-03-08T14:59:34;826.25;;;744.67;;
4428;SDS011;2227;47.810;8.810;2024-03-08T15:02:00;829.83;;;747.28;;
4428;SDS011;2227;47.810;8.810;2024-03-08T15:04:28;825.50;;;743.60;;
4428;SDS011;2227;47.810;8.810;2024-03-08T15:06:55;819.08;;;737.17;;
4428;SDS011;2227;47.810;8.810;2024-03-08T15:09:22;815.13;;;733.22;;
4428;SDS011;2227;47.810;8.810;2024-03-08T15:11:49;812.55;;;730.95;;
4428;SDS011;2227;47.810;8.810;2024-03-08T15:14:16;814.85;;;732.88;;
4428;SDS011;2227;47.810;8.810;2024-03-08T15:16:45;809.45;;;728.03;;
4428;SDS011;2227;47.810;8.810;2024-03-08T15:19:14;807.22;;;725.33;;
4428;SDS011;2227;47.810;8.810;2024-03-08T15:21:41;807.58;;;725.53;;
4428;SDS011;2227;47.810;8.810;2024-03-08T15:24:12;804.47;;;722.90;;
4428;SDS011;2227;47.810;8.810;2024-03-08T15:26:41;805.33;;;724.35;;
4428;SDS011;2227;47.810;8.810;2024-03-08T15:29:09;808.95;;;727.65;;
4428;SDS011;2227;47.810;8.810;2024-03-08T15:31:39;820.17;;;738.33;;
4428;SDS011;2227;47.810;8.810;2024-03-08T15:34:07;813.58;;;731.88;;
4428;SDS011;2227;47.810;8.810;2024-03-08T15:36:34;818.70;;;736.30;;
4428;SDS011;2227;47.810;8.810;2024-03-08T15:39:01;810.42;;;727.83;;
4428;SDS011;2227;47.810;8.810;2024-03-08T15:41:29;802.23;;;719.63;;
4428;SDS011;2227;47.810;8.810;2024-03-08T15:43:56;801.38;;;718.80;;
4428;SDS011;2227;47.810;8.810;2024-03-08T15:46:23;800.53;;;718.05;;
4428;SDS011;2227;47.810;8.810;2024-03-08T15:48:51;807.40;;;724.30;;
4428;SDS011;2227;47.810;8.810;2024-03-08T15:51:18;791.45;;;708.97;;
4428;SDS011;2227;47.810;8.810;2024-03-08T15:53:46;779.60;;;697.42;;
4428;SDS011;2227;47.810;8.810;2024-03-08T15:56:22;763.43;;;681.53;;
4428;SDS011;2227;47.810;8.810;2024-03-08T15:58:50;768.33;;;685.72;;
4428;SDS011;2227;47.810;8.810;2024-03-08T16:01:18;747.30;;;665.17;;
4428;SDS011;2227;47.810;8.810;2024-03-08T16:03:46;755.38;;;673.08;;
4428;SDS011;2227;47.810;8.810;2024-03-08T16:06:16;754.63;;;672.70;;
4428;SDS011;2227;47.810;8.810;2024-03-08T16:08:52;754.13;;;671.42;;
4428;SDS011;2227;47.810;8.810;2024-03-08T16:11:19;754.25;;;671.75;;
4428;SDS011;2227;47.810;8.810;2024-03-08T16:13:47;751.78;;;669.45;;
4428;SDS011;2227;47.810;8.810;2024-03-08T16:16:15;758.15;;;676.13;;
4428;SDS011;2227;47.810;8.810;2024-03-08T16:18:43;762.63;;;680.35;;
4428;SDS011;2227;47.810;8.810;2024-03-08T16:21:10;771.13;;;688.22;;
4428;SDS011;2227;47.810;8.810;2024-03-08T16:23:38;759.70;;;676.97;;
4428;SDS011;2227;47.810;8.810;2024-03-08T16:26:05;758.10;;;675.60;;
4428;SDS011;2227;47.810;8.810;2024-03-08T16:28:32;760.17;;;677.97;;
4428;SDS011;2227;47.810;8.810;2024-03-08T16:31:06;765.63;;;683.53;;
4428;SDS011;2227;47.810;8.810;2024-03-08T16:33:34;764.00;;;680.90;;
4428;SDS011;2227;47.810;8.810;2024-03-08T16:36:01;755.38;;;672.00;;
4428;SDS011;2227;47.810;8.810;2024-03-08T16:38:29;747.42;;;659.50;;
4428;SDS011;2227;47.810;8.810;2024-03-08T16:40:59;750.15;;;665.63;;
4428;SDS011;2227;47.810;8.810;2024-03-08T16:43:27;747.67;;;657.67;;
4428;SDS011;2227;47.810;8.810;2024-03-08T16:45:54;751.05;;;659.33;;
4428;SDS011;2227;47.810;8.810;2024-03-08T16:48:22;748.35;;;658.33;;
4428;SDS011;2227;47.810;8.810;2024-03-08T16:50:50;747.30;;;652.08;;
4428;SDS011;2227;47.810;8.810;2024-03-08T16:53:17;745.50;;;649.47;;
4428;SDS011;2227;47.810;8.810;2024-03-08T16:55:45;738.20;;;623.08;;
4428;SDS011;2227;47.810;8.810;2024-03-08T16:58:13;739.53;;;627.53;;
4428;SDS011;2227;47.810;8.810;2024-03-08T17:00:43;741.20;;;623.50;;
4428;SDS011;2227;47.810;8.810;2024-03-08T17:03:09;738.90;;;622.93;;
4428;SDS011;2227;47.810;8.810;2024-03-08T17:05:39;743.40;;;635.47;;
4428;SDS011;2227;47.810;8.810;2024-03-08T17:08:11;735.45;;;616.70;;
4428;SDS011;2227;47.810;8.810;2024-03-08T17:10:38;736.22;;;621.42;;
4428;SDS011;2227;47.810;8.810;2024-03-08T17:13:06;734.13;;;617.58;;
4428;SDS011;2227;47.810;8.810;2024-03-08T17:15:34;731.83;;;612.88;;
4428;SDS011;2227;47.810;8.810;2024-03-08T17:18:02;732.65;;;614.92;;
4428;SDS011;2227;47.810;8.810;2024-03-08T17:20:36;732.88;;;611.17;;
4428;SDS011;2227;47.810;8.810;2024-03-08T17:23:03;732.22;;;612.85;;
4428;SDS011;2227;47.810;8.810;2024-03-08T17:25:35;730.42;;;613.78;;
4428;SDS011;2227;47.810;8.810;2024-03-08T17:28:04;730.78;;;604.85;;
4428;SDS011;2227;47.810;8.810;2024-03-08T17:30:33;731.67;;;605.65;;
4428;SDS011;2227;47.810;8.810;2024-03-08T17:33:04;734.90;;;602.10;;
4428;SDS011;2227;47.810;8.810;2024-03-08T17:35:36;739.20;;;599.13;;
4428;SDS011;2227;47.810;8.810;2024-03-08T17:38:06;738.83;;;593.95;;
4428;SDS011;2227;47.810;8.810;2024-03-08T17:40:37;743.20;;;601.88;;
4428;SDS011;2227;47.810;8.810;2024-03-08T17:43:06;741.42;;;586.05;;
4428;SDS011;2227;47.810;8.810;2024-03-08T17:45:36;746.03;;;579.83;;
4428;SDS011;2227;47.810;8.810;2024-03-08T17:48:05;748.50;;;577.45;;
4428;SDS011;2227;47.810;8.810;2024-03-08T17:50:39;743.88;;;578.40;;
4428;SDS011;2227;47.810;8.810;2024-03-08T17:53:06;740.63;;;566.17;;
4428;SDS011;2227;47.810;8.810;2024-03-08T17:55:33;737.47;;;570.47;;
4428;SDS011;2227;47.810;8.810;2024-03-08T17:58:07;738.97;;;564.97;;
4428;SDS011;2227;47.810;8.810;2024-03-08T18:00:34;745.88;;;566.20;;
4428;SDS011;2227;47.810;8.810;2024-03-08T18:03:05;744.70;;;553.72;;
4428;SDS011;2227;47.810;8.810;2024-03-08T18:05:34;746.70;;;563.70;;
4428;SDS011;2227;47.810;8.810;2024-03-08T18:08:03;742.55;;;559.28;;
4428;SDS011;2227;47.810;8.810;2024-03-08T18:10:31;741.35;;;558.03;;
4428;SDS011;2227;47.810;8.810;2024-03-08T18:13:01;739.85;;;559.50;;
4428;SDS011;2227;47.810;8.810;2024-03-08T18:15:33;739.97;;;556.22;;
4428;SDS011;2227;47.810;8.810;2024-03-08T18:18:00;736.78;;;562.08;;
4428;SDS011;2227;47.810;8.810;2024-03-08T18:20:30;734.83;;;562.88;;
4428;SDS011;2227;47.810;8.810;2024-03-08T18:22:58;731.22;;;566.50;;
4428;SDS011;2227;47.810;8.810;2024-03-08T18:25:28;738.22;;;565.78;;
4428;SDS011;2227;47.810;8.810;2024-03-08T18:27:56;736.95;;;566.10;;
4428;SDS011;2227;47.810;8.810;2024-03-08T18:30:27;733.42;;;560.10;;
4428;SDS011;2227;47.810;8.810;2024-03-08T18:32:54;730.45;;;566.20;;
4428;SDS011;2227;47.810;8.810;2024-03-08T18:35:21;728.03;;;562.33;;
4428;SDS011;2227;47.810;8.810;2024-03-08T18:37:48;730.72;;;565.10;;
4428;SDS011;2227;47.810;8.810;2024-03-08T18:40:18;730.03;;;564.60;;
4428;SDS011;2227;47.810;8.810;2024-03-08T18:42:52;728.83;;;566.50;;
4428;SDS011;2227;47.810;8.810;2024-03-08T18:45:20;737.93;;;562.20;;
4428;SDS011;2227;47.810;8.810;2024-03-08T18:47:49;725.17;;;561.92;;
4428;SDS011;2227;47.810;8.810;2024-03-08T18:50:20;730.95;;;565.10;;
4428;SDS011;2227;47.810;8.810;2024-03-08T18:52:50;725.00;;;568.63;;
4428;SDS011;2227;47.810;8.810;2024-03-08T18:55:17;730.00;;;568.30;;
4428;SDS011;2227;47.810;8.810;2024-03-08T18:57:50;726.60;;;568.92;;
4428;SDS011;2227;47.810;8.810;2024-03-08T19:00:22;724.75;;;566.47;;
4428;SDS011;2227;47.810;8.810;2024-03-08T19:03:06;728.65;;;567.03;;
4428;SDS011;2227;47.810;8.810;2024-03-08T19:05:36;730.92;;;569.75;;
4428;SDS011;2227;47.810;8.810;2024-03-08T19:08:09;728.38;;;575.92;;
4428;SDS011;2227;47.810;8.810;2024-03-08T19:10:40;724.90;;;568.77;;
4428;SDS011;2227;47.810;8.810;2024-03-08T19:13:07;724.25;;;568.75;;
4428;SDS011;2227;47.810;8.810;2024-03-08T19:15:40;730.30;;;578.17;;
4428;SDS011;2227;47.810;8.810;2024-03-08T19:18:08;731.40;;;572.63;;
4428;SDS011;2227;47.810;8.810;2024-03-08T19:20:40;733.00;;;575.15;;
4428;SDS011;2227;47.810;8.810;2024-03-08T19:23:07;732.10;;;571.55;;
4428;SDS011;2227;47.810;8.810;2024-03-08T19:25:36;730.30;;;573.22;;
4428;SDS011;2227;47.810;8.810;2024-03-08T19:28:12;737.38;;;573.92;;
4428;SDS011;2227;47.810;8.810;2024-03-08T19:30:40;734.50;;;579.55;;
4428;SDS011;2227;47.810;8.810;2024-03-08T19:33:06;736.05;;;581.00;;
4428;SDS011;2227;47.810;8.810;2024-03-08T19:35:34;739.47;;;574.05;;
4428;SDS011;2227;47.810;8.810;2024-03-08T19:38:01;738.55;;;582.45;;
4428;SDS011;2227;47.810;8.810;2024-03-08T19:40:30;736.83;;;584.63;;